Arthur Maersk — OXJH2 — position and weather

sailwx.info

Track history (hours):
 
Tides and Currents Weather Stations Pressure Air Temp Water Temp Dewpoint Dewpoint Depression Visibility Wind Speed Wind Dir Waves Ship Positions

Arthur Maersk

Last reported at 2017-Mar-22 20:33 UTC. Time now 2017-Mar-29 03:15 UTC.
Position N 22°30' E 119°57'.

Length 352 m; draft 10.5 m.

Type: Cargo ship. MMSI: 220221000.

Date/timePositionNaut miles runAvg speedWind from/ knotsBaromVisibWave heightAir tempDewpointWater temp
2017-Mar-22 20:33N 22°30' E 119°57'1212.3
2017-Mar-22 19:33N 22°32' E 120°10'9 8.8
2017-Mar-22 18:33N 22°33' E 120°20'0 0.0
2017-Mar-22 17:17N 22°33' E 120°20'0 0.0
2017-Mar-22 16:17N 22°33' E 120°20'0 0.0
2017-Mar-22 15:23N 22°33' E 120°20'0 0.0
2017-Mar-22 14:29N 22°33' E 120°20'0 0.0
2017-Mar-22 13:29N 22°33' E 120°20'0 0.0
2017-Mar-22 12:29N 22°33' E 120°20'0 0.0
2017-Mar-22 11:23N 22°33' E 120°20'0 0.3
2017-Mar-22 10:33N 22°33' E 120°19'5 4.6
2017-Mar-22 09:34N 22°32' E 120°15'9 9.4
2017-Mar-22 08:33N 22°40' E 120°08'1817.9
2017-Mar-22 07:32N 22°56' E 119°58'11614.3
2017-Mar-21 23:26N 24°10' E 118°21'1315.4
2017-Mar-21 22:33N 24°20' E 118°11'1111.1
2017-Mar-21 21:31N 24°27' E 118°01'0 0.2
2017-Mar-21 20:25N 24°27' E 118°01'0 0.0
2017-Mar-21 19:31N 24°27' E 118°01'0 0.0
2017-Mar-21 18:31N 24°27' E 118°01'0 0.0
2017-Mar-21 17:28N 24°27' E 118°01'0 0.0
2017-Mar-21 16:31N 24°27' E 118°01'6 5.7
2017-Mar-21 15:34N 24°24' E 118°06'1414.3
2017-Mar-21 14:33N 24°14' E 118°17'  
2017-Mar-17 16:06N 30°28' E 122°34'0 0.2
2017-Mar-17 15:12N 30°28' E 122°34'0 0.2
2017-Mar-17 14:27N 30°28' E 122°34'1 0.6
2017-Mar-17 13:33N 30°28' E 122°35'0 0.0
2017-Mar-17 12:30N 30°28' E 122°35'0 0.2
2017-Mar-17 11:24N 30°28' E 122°35'0 0.0
2017-Mar-15 11:17N 30°28' E 122°35'0 0.1
2017-Mar-15 06:32N 30°29' E 122°35'0 0.1
2017-Mar-15 05:29N 30°29' E 122°34'0 0.1
2017-Mar-15 04:29N 30°29' E 122°34'  
Track history (hours):
 
Tides and Currents Weather Stations Pressure Air Temp Water Temp Dewpoint Dewpoint Depression Visibility Wind Speed Wind Dir Waves Ship Positions

Arthur Maersk

Last reported at 2017-Mar-22 20:33 UTC. Time now 2017-Mar-29 03:15 UTC.
Position N 22°30' E 119°57'.

Length 352 m; draft 10.5 m.

Type: Cargo ship. MMSI: 220221000.

Date/timePositionNaut miles runAvg speedWind from/ knotsBaromVisibWave heightAir tempDewpointWater temp
2017-Mar-22 20:33N 22°30' E 119°57'1212.3
2017-Mar-22 19:33N 22°32' E 120°10'9 8.8
2017-Mar-22 18:33N 22°33' E 120°20'0 0.0
2017-Mar-22 17:17N 22°33' E 120°20'0 0.0
2017-Mar-22 16:17N 22°33' E 120°20'0 0.0
2017-Mar-22 15:23N 22°33' E 120°20'0 0.0
2017-Mar-22 14:29N 22°33' E 120°20'0 0.0
2017-Mar-22 13:29N 22°33' E 120°20'0 0.0
2017-Mar-22 12:29N 22°33' E 120°20'0 0.0
2017-Mar-22 11:23N 22°33' E 120°20'0 0.3
2017-Mar-22 10:33N 22°33' E 120°19'5 4.6
2017-Mar-22 09:34N 22°32' E 120°15'9 9.4
2017-Mar-22 08:33N 22°40' E 120°08'1817.9
2017-Mar-22 07:32N 22°56' E 119°58'11614.3
2017-Mar-21 23:26N 24°10' E 118°21'1315.4
2017-Mar-21 22:33N 24°20' E 118°11'1111.1
2017-Mar-21 21:31N 24°27' E 118°01'0 0.2
2017-Mar-21 20:25N 24°27' E 118°01'0 0.0
2017-Mar-21 19:31N 24°27' E 118°01'0 0.0
2017-Mar-21 18:31N 24°27' E 118°01'0 0.0
2017-Mar-21 17:28N 24°27' E 118°01'0 0.0
2017-Mar-21 16:31N 24°27' E 118°01'6 5.7
2017-Mar-21 15:34N 24°24' E 118°06'1414.3
2017-Mar-21 14:33N 24°14' E 118°17'  
2017-Mar-17 16:06N 30°28' E 122°34'0 0.2
2017-Mar-17 15:12N 30°28' E 122°34'0 0.2
2017-Mar-17 14:27N 30°28' E 122°34'1 0.6
2017-Mar-17 13:33N 30°28' E 122°35'0 0.0
2017-Mar-17 12:30N 30°28' E 122°35'0 0.2
2017-Mar-17 11:24N 30°28' E 122°35'0 0.0
2017-Mar-15 11:17N 30°28' E 122°35'0 0.1
2017-Mar-15 06:32N 30°29' E 122°35'0 0.1
2017-Mar-15 05:29N 30°29' E 122°34'0 0.1
2017-Mar-15 04:29N 30°29' E 122°34'  

Dump ship's entire track history